7°C
Woerden, The Nederlands
Taal:  Nederlands
Updated13/04/2021 10:30 
 

Nearby METAR Reports

EHAM - Amsterdam/Schiph, Netherlands
Distance from station: N 27km
Updated: 13/04/2021 10:25
Few Clouds
Few Clouds
 Wind van NW
Wind: NW 15 km/h
Temperatuur: 7°C
Hitte Index: 4°C
Dauwpunt: 1°C
Vochtigheid: 66%
Barometer: 1033 hPa
Clouds: Few Clouds
Visibility: 10 km
Cloud details: Few Clouds 945 m
2021/04/13 08:25 EHAM 130825Z 31008KT 280V010 9999 FEW031 07/01 Q1033 NOSIG
EHRD - Rotterdam Airpor, Netherlands
Distance from station: WZW 30km
Updated: 13/04/2021 10:25
Helder
Helder
 Wind van NNW
Wind: NNW 11 km/h
Temperatuur: 7°C
Hitte Index: 5°C
Dauwpunt: 1°C
Vochtigheid: 66%
Barometer: 1033 hPa
Clouds: Helder
Visibility: 10 km
2021/04/13 08:25 EHRD 130825Z AUTO 33006KT 270V020 9999 NCD 07/01 Q1033 NOSIG
 
EHGR - Gilze-Rijen Rnla, Netherlands
Distance from station: Z 57km
Updated: 13/04/2021 10:25
Meestal bewolkt
Meestal bewolkt
 Wind van NW
Wind: NW 15 km/h
Temperatuur: 7°C
Hitte Index: 4°C
Dauwpunt: 1°C
Vochtigheid: 66%
Barometer: 1033 hPa
Clouds: Meestal bewolkt
Visibility: 10 km
Cloud details: Meestal bewolkt 853 m
Meestal bewolkt 945 m
2021/04/13 08:25 EHGR 130825Z AUTO 32008KT 260V040 9999 BKN028 BKN031 07/01 Q1033 BLU NOSIG
EHDL - Deelen Rnlafb, Netherlands
Distance from station: O 71km
Updated: 13/04/2021 10:25
Helder
Helder
 Wind van NW
Wind: NW 19 km/h
Temperatuur: 6°C
Hitte Index: 3°C
Dauwpunt: 0°C
Vochtigheid: 66%
Barometer: 1032 hPa
Clouds: Helder
Visibility: 10 km
2021/04/13 08:25 EHDL 130825Z AUTO 31010KT 280V030 9999 NCD 06/M00 Q1032 BLU
 
EHVK - Volkel Rnlafb, Netherlands
Distance from station: ZO 77km
Updated: 13/04/2021 10:26
Gedeeltelijk bewolkt
Gedeeltelijk bewolkt
 Wind van NW
Wind: NW 11 km/h
Temperatuur: 7°C
Hitte Index: 5°C
Dauwpunt: 1°C
Vochtigheid: 66%
Barometer: 1033 hPa
Clouds: Gedeeltelijk bewolkt
Visibility: 10 km
Cloud details: Gedeeltelijk bewolkt 701 m
2021/04/13 08:26 EHVK 130826Z AUTO 32006KT 270V360 9999 SCT023 07/01 Q1033 WHT NOSIG
EHWO - Woensdrecht Rnla, Netherlands
Distance from station: ZZW 78km
Updated: 13/04/2021 10:25
Zwaar bewolkt
Zwaar bewolkt
 Wind van WNW
Wind: WNW 11 km/h
Temperatuur: 8°C
Hitte Index: 6°C
Dauwpunt: 0°C
Vochtigheid: 57%
Barometer: 1033 hPa
Clouds: Zwaar bewolkt
Visibility: 10 km
Cloud details: Zwaar bewolkt 853 m
2021/04/13 08:25 EHWO 130825Z AUTO 30006KT 230V350 9999 OVC028 08/00 Q1033 BLU NOSIG
 
EHEH - Eindhoven Rnlafb, Netherlands
Distance from station: ZZO 81km
Updated: 13/04/2021 10:25
Few Clouds
Few Clouds
 Wind van NW
Wind: NW 13 km/h
Temperatuur: 6°C
Hitte Index: 3°C
Dauwpunt: 0°C
Vochtigheid: 66%
Barometer: 1033 hPa
Clouds: Few Clouds
Visibility: 10 km
Cloud details: Few Clouds 762 m
2021/04/13 08:25 EHEH 130825Z AUTO 31007KT 260V040 9999 FEW025 06/00 Q1033 BLU NOSIG
EHSC - Goeree Le Sea, Netherlands
Distance from station: W 81km
Updated: 13/04/2021 10:25

 Wind van NW
Wind: NW 11 km/h
Temperatuur: 6°C
Hitte Index: 4°C
Dauwpunt: -1°C
Vochtigheid: 61%
Barometer: 1033 hPa
Visibility: 10 km
2021/04/13 08:25 EHSC 130825Z AUTO 31006KT 9999 ///////// 06/M01 Q1033 W07/H9